Time;durP1;ratioP1;P1;durP2;ratioP2;P2;SDS_P1;SDS_P2;PMS_P1;PMS_P2;Temp;Humidity;BMP_temperature;BMP_pressure;BME280_temperature;BME280_humidity;BME280_pressure;Samples;Min_cycle;Max_cycle;Signal;HPM_P1;HPM_P2
2023/09/23 02:43:37;;;;;;;6.10;3.70;;;;;;;15.66;100.00;98364.38;107822;1303;545951;-46
2023/09/23 02:46:03;;;;;;;3.70;3.40;;;;;;;15.64;100.00;98368.91;108099;1289;22215;-48
2023/09/23 02:48:28;;;;;;;3.60;3.30;;;;;;;15.66;100.00;98365.77;108063;1288;22357;-47
2023/09/23 02:50:58;;;;;;;4.60;3.40;;;;;;;15.67;100.00;98361.95;108077;1289;22432;-47
2023/09/23 02:53:24;;;;;;;4.60;3.20;;;;;;;15.66;100.00;98365.20;108072;1289;22213;-49
2023/09/23 02:55:59;;;;;;;5.10;3.30;;;;;;;15.67;100.00;98364.42;108047;1306;22397;-46
2023/09/23 02:58:24;;;;;;;4.10;3.40;;;;;;;15.65;100.00;98348.13;108232;1303;141825;-48
2023/09/23 03:00:57;;;;;;;3.40;3.00;;;;;;;15.66;100.00;98347.58;108337;1286;22287;-48
2023/09/23 03:03:23;;;;;;;3.80;3.10;;;;;;;15.66;100.00;98348.58;108341;1286;22391;-48
2023/09/23 03:05:55;;;;;;;4.00;3.10;;;;;;;15.66;100.00;98360.05;108214;1304;22959;-48
2023/09/23 03:08:22;;;;;;;3.70;3.40;;;;;;;15.69;100.00;98360.73;108210;1304;22220;-46
2023/09/23 03:10:49;;;;;;;4.10;3.00;;;;;;;15.70;100.00;98361.27;108228;1289;22134;-47
2023/09/23 03:13:15;;;;;;;4.20;3.40;;;;;;;15.71;100.00;98359.25;108205;1283;23187;-49
2023/09/23 03:15:49;;;;;;;3.40;3.10;;;;;;;15.68;100.00;98355.47;108194;1304;22459;-47
2023/09/23 03:18:15;;;;;;;3.10;2.80;;;;;;;15.67;100.00;98352.40;108208;1287;22410;-46
2023/09/23 03:20:40;;;;;;;3.80;3.30;;;;;;;15.66;100.00;98353.94;108201;1304;22257;-46
2023/09/23 03:23:10;;;;;;;3.40;2.90;;;;;;;15.64;100.00;98357.98;108169;1304;22214;-48
2023/09/23 03:25:42;;;;;;;4.20;3.10;;;;;;;15.64;100.00;98360.30;108208;1285;22235;-46
2023/09/23 03:28:08;;;;;;;4.80;3.00;;;;;;;15.68;100.00;98373.55;108197;1304;22464;-50
2023/09/23 03:30:35;;;;;;;3.10;2.90;;;;;;;15.71;100.00;98379.98;108005;1304;22462;-48
2023/09/23 03:33:02;;;;;;;2.30;2.10;;;;;;;15.73;100.00;98385.27;108194;1304;23253;-47
2023/09/23 03:35:28;;;;;;;2.80;2.50;;;;;;;15.70;100.00;98394.36;108293;1303;22835;-47
2023/09/23 03:37:53;;;;;;;2.60;2.40;;;;;;;15.72;100.00;98398.11;108326;1303;22463;-46
2023/09/23 03:40:24;;;;;;;2.80;2.30;;;;;;;15.71;100.00;98390.89;108331;1295;22404;-47
2023/09/23 03:42:50;;;;;;;2.70;2.50;;;;;;;15.72;100.00;98385.02;108352;1303;22256;-46
2023/09/23 03:45:17;;;;;;;2.90;2.70;;;;;;;15.72;100.00;98389.26;108104;1304;22275;-45
2023/09/23 03:47:45;;;;;;;3.00;2.80;;;;;;;15.72;100.00;98392.91;108354;1286;23294;-48
2023/09/23 03:50:10;;;;;;;;;;;;;;;15.71;100.00;98399.58;108390;1282;22429;-46
2023/09/23 03:52:36;;;;;;;3.00;2.30;;;;;;;15.64;100.00;98403.95;108351;1286;22235;-49
2023/09/23 03:55:03;;;;;;;2.80;2.50;;;;;;;15.65;100.00;98408.42;108321;1304;22496;-47
2023/09/23 03:57:28;;;;;;;2.70;2.50;;;;;;;15.66;100.00;98417.65;108344;1285;22901;-47
2023/09/23 03:59:54;;;;;;;2.80;2.60;;;;;;;15.66;100.00;98425.30;108316;1304;22307;-47
2023/09/23 04:02:21;;;;;;;2.60;2.40;;;;;;;15.67;100.00;98431.77;108328;1304;22918;-46
2023/09/23 04:04:50;;;;;;;2.40;2.30;;;;;;;15.66;100.00;98436.79;108334;1285;22858;-47
2023/09/23 04:07:16;;;;;;;3.00;2.50;;;;;;;15.66;100.00;98450.70;108345;1286;22228;-44
2023/09/23 04:09:41;;;;;;;2.70;2.50;;;;;;;15.65;100.00;98465.66;108341;1286;22475;-49
2023/09/23 04:12:08;;;;;;;3.70;2.40;;;;;;;15.64;100.00;98473.87;108318;1300;22448;-45
2023/09/23 04:14:34;;;;;;;4.20;2.80;;;;;;;15.62;100.00;98476.20;108356;1292;22420;-46
2023/09/23 04:16:59;;;;;;;2.60;2.40;;;;;;;15.64;100.00;98478.10;108313;1304;22223;-48
2023/09/23 04:19:26;;;;;;;2.70;2.50;;;;;;;15.66;100.00;98474.80;108330;1285;22234;-45
2023/09/23 04:21:52;;;;;;;2.80;2.60;;;;;;;15.63;100.00;98480.70;108331;1285;22445;-49
2023/09/23 04:24:17;;;;;;;2.70;2.50;;;;;;;15.62;100.00;98487.14;108335;1304;23073;-44
2023/09/23 04:26:42;;;;;;;2.90;2.70;;;;;;;15.66;100.00;98489.10;108310;1304;22230;-47
2023/09/23 04:29:07;;;;;;;3.50;3.20;;;;;;;15.66;100.00;98491.73;108341;1304;23139;-43
2023/09/23 04:31:33;;;;;;;3.50;3.20;;;;;;;15.64;100.00;98495.06;108330;1302;22237;-47
2023/09/23 04:33:59;;;;;;;4.20;3.80;;;;;;;15.65;100.00;98502.58;108354;1286;22311;-49
2023/09/23 04:36:24;;;;;;;3.90;3.30;;;;;;;15.67;100.00;98515.14;108332;1286;22999;-48
2023/09/23 04:38:49;;;;;;;3.10;2.80;;;;;;;15.72;100.00;98527.45;108316;1286;22402;-49
2023/09/23 04:41:15;;;;;;;3.00;2.70;;;;;;;15.71;100.00;98534.70;108335;1304;22949;-50
2023/09/23 04:43:41;;;;;;;3.20;2.50;;;;;;;15.74;100.00;98532.61;108317;1285;22409;-48
2023/09/23 04:46:06;;;;;;;3.30;3.00;;;;;;;15.75;100.00;98527.41;108354;1286;22395;-46
2023/09/23 04:48:32;;;;;;;3.10;2.70;;;;;;;15.75;100.00;98516.23;108319;1286;22300;-49
2023/09/23 04:50:57;;;;;;;4.20;3.00;;;;;;;15.77;100.00;98513.27;108341;1285;22236;-49
2023/09/23 04:53:23;;;;;;;2.90;2.70;;;;;;;15.78;100.00;98511.23;108303;1301;22434;-46
2023/09/23 04:55:48;;;;;;;3.20;2.90;;;;;;;15.74;100.00;98509.06;108325;1285;22230;-51
2023/09/23 04:58:13;;;;;;;5.50;3.00;;;;;;;15.75;100.00;98505.30;108304;1286;22477;-45
2023/09/23 05:00:39;;;;;;;2.80;2.60;;;;;;;15.74;100.00;98504.67;108310;1294;22206;-44
2023/09/23 05:03:05;;;;;;;4.20;2.30;;;;;;;15.71;100.00;98495.38;108328;1282;22194;-45
2023/09/23 05:05:32;;;;;;;2.90;2.60;;;;;;;15.70;100.00;98484.98;108334;1288;22419;-43
2023/09/23 05:07:59;;;;;;;4.50;2.70;;;;;;;15.69;100.00;98484.54;108329;1285;22429;-44
2023/09/23 05:10:26;;;;;;;;;;;;;;;15.71;100.00;98496.42;108122;1304;22522;-44
2023/09/23 05:12:55;;;;;;;3.80;2.20;;;;;;;15.70;100.00;98505.91;108330;1282;22847;-50
2023/09/23 05:15:21;;;;;;;4.80;2.00;;;;;;;15.68;100.00;98508.16;108321;1304;22276;-45
2023/09/23 05:17:49;;;;;;;2.50;1.90;;;;;;;15.69;100.00;98521.34;108309;1304;22262;-48
2023/09/23 05:20:15;;;;;;;;;;;;;;;15.67;100.00;98531.05;108336;1286;22447;-48
2023/09/23 05:22:41;;;;;;;2.10;1.90;;;;;;;15.67;100.00;98541.96;108328;1293;22416;-51
2023/09/23 05:25:07;;;;;;;8.40;2.70;;;;;;;15.69;100.00;98554.52;108325;1286;22194;-44
2023/09/23 05:27:32;;;;;;;2.40;2.20;;;;;;;15.68;100.00;98558.69;108348;1286;22409;-44
2023/09/23 05:29:58;;;;;;;5.90;2.80;;;;;;;15.66;100.00;98566.60;108338;1286;22244;-49
2023/09/23 05:32:23;;;;;;;2.40;2.20;;;;;;;15.66;100.00;98576.88;108340;1285;22218;-44
2023/09/23 05:34:51;;;;;;;5.30;2.50;;;;;;;15.66;100.00;98590.86;108298;1286;24714;-47
2023/09/23 05:37:16;;;;;;;2.60;2.00;;;;;;;15.67;100.00;98610.02;108178;1286;22246;-51
2023/09/23 05:39:45;;;;;;;2.90;2.60;;;;;;;15.69;100.00;98621.14;108199;1305;22248;-47
2023/09/23 05:42:13;;;;;;;4.20;2.80;;;;;;;15.71;100.00;98629.42;108179;1289;22306;-47
2023/09/23 05:44:38;;;;;;;;;;;;;;;15.69;100.00;98642.17;108210;1305;23169;-46
2023/09/23 05:47:03;;;;;;;4.00;2.90;;;;;;;15.67;100.00;98649.58;108181;1286;22249;-49
2023/09/23 05:49:30;;;;;;;5.70;2.50;;;;;;;15.69;100.00;98643.27;108178;1305;22370;-51
2023/09/23 05:51:56;;;;;;;;;;;;;;;15.70;100.00;98630.09;108216;1285;23006;-48
2023/09/23 05:54:22;;;;;;;2.90;2.70;;;;;;;15.71;100.00;98627.50;108200;1286;22225;-46
2023/09/23 05:56:48;;;;;;;3.50;2.80;;;;;;;15.71;100.00;98617.63;108208;1305;22836;-49
2023/09/23 05:59:13;;;;;;;3.40;3.10;;;;;;;15.72;100.00;98612.96;108211;1282;22935;-47
2023/09/23 06:01:42;;;;;;;4.90;3.30;;;;;;;15.73;100.00;98604.00;108182;1305;23040;-44
2023/09/23 06:04:09;;;;;;;4.50;3.20;;;;;;;15.74;100.00;98594.63;108197;1283;22263;-45
2023/09/23 06:06:38;;;;;;;4.10;3.00;;;;;;;15.73;100.00;98594.34;108202;1286;23083;-46
2023/09/23 06:09:07;;;;;;;3.30;3.10;;;;;;;15.71;100.00;98588.77;108203;1305;23068;-46
2023/09/23 06:11:33;;;;;;;3.50;3.20;;;;;;;15.71;100.00;98575.60;108200;1286;23438;-49
2023/09/23 06:13:59;;;;;;;6.30;3.10;;;;;;;15.73;100.00;98583.55;108185;1305;22352;-45
2023/09/23 06:16:24;;;;;;;3.60;3.20;;;;;;;15.77;100.00;98599.12;108207;1286;22220;-49
2023/09/23 06:18:49;;;;;;;3.60;3.30;;;;;;;15.84;100.00;98595.85;108206;1305;22397;-48
2023/09/23 06:21:15;;;;;;;3.40;2.80;;;;;;;15.94;100.00;98597.33;108190;1292;22222;-46
2023/09/23 06:23:40;;;;;;;4.30;2.90;;;;;;;15.99;100.00;98613.61;108217;1292;22284;-46
2023/09/23 06:26:06;;;;;;;5.20;3.20;;;;;;;16.02;100.00;98608.26;108209;1305;22488;-49
2023/09/23 06:28:35;;;;;;;3.20;3.00;;;;;;;16.05;100.00;98618.04;108189;1285;22316;-46
2023/09/23 06:31:01;;;;;;;3.60;3.30;;;;;;;16.08;100.00;98636.35;108189;1305;23088;-44
2023/09/23 06:33:26;;;;;;;3.60;3.20;;;;;;;16.10;100.00;98647.67;108181;1305;22325;-46
2023/09/23 06:35:52;;;;;;;5.30;3.00;;;;;;;16.09;100.00;98655.54;108218;1286;22382;-46
2023/09/23 06:38:17;;;;;;;4.40;3.40;;;;;;;16.08;100.00;98653.52;108211;1285;22389;-47
2023/09/23 06:40:42;;;;;;;4.00;3.20;;;;;;;16.10;100.00;98647.30;108202;1289;22255;-47
2023/09/23 06:43:08;;;;;;;4.00;3.70;;;;;;;16.18;100.00;98646.63;108187;1305;22246;-47
2023/09/23 06:45:34;;;;;;;3.60;3.30;;;;;;;16.24;100.00;98656.70;108204;1286;22229;-47
2023/09/23 06:47:59;;;;;;;3.90;3.40;;;;;;;16.31;100.00;98668.45;108175;1285;22487;-46
2023/09/23 06:50:25;;;;;;;3.60;3.30;;;;;;;16.35;100.00;98674.67;108178;1293;22340;-46
2023/09/23 06:52:50;;;;;;;3.70;2.70;;;;;;;16.39;100.00;98679.23;108207;1285;22484;-45
2023/09/23 06:55:15;;;;;;;3.50;3.20;;;;;;;16.40;100.00;98682.11;108191;1305;23626;-49
2023/09/23 06:57:40;;;;;;;9.30;2.80;;;;;;;16.44;100.00;98687.93;108202;1305;22335;-50
2023/09/23 07:00:07;;;;;;;3.00;2.70;;;;;;;16.46;100.00;98693.09;108204;1286;22365;-45
2023/09/23 07:02:33;;;;;;;2.60;2.40;;;;;;;16.47;100.00;98691.11;108205;1286;22310;-47
2023/09/23 07:04:58;;;;;;;2.90;2.70;;;;;;;16.49;100.00;98688.92;108202;1286;23009;-50
2023/09/23 07:07:24;;;;;;;2.70;2.50;;;;;;;16.57;100.00;98693.95;108198;1305;22833;-48
2023/09/23 07:09:49;;;;;;;2.80;2.60;;;;;;;16.63;99.87;98700.06;108197;1305;22218;-46
2023/09/23 07:12:14;;;;;;;2.40;2.20;;;;;;;16.68;99.53;98695.40;108194;1283;22480;-47
2023/09/23 07:14:40;;;;;;;2.30;2.00;;;;;;;16.70;98.92;98701.09;108190;1305;22321;-48
2023/09/23 07:17:06;;;;;;;3.60;2.10;;;;;;;16.64;98.33;98715.60;108200;1299;22919;-49
2023/09/23 07:19:32;;;;;;;2.90;2.00;;;;;;;16.69;98.06;98721.52;108280;1302;22208;-45
2023/09/23 07:21:57;;;;;;;4.80;2.20;;;;;;;16.75;98.23;98727.48;108212;1286;23291;-50
2023/09/23 07:24:23;;;;;;;2.60;2.00;;;;;;;16.77;97.94;98729.77;108186;1305;22312;-47
2023/09/23 07:26:48;;;;;;;3.70;1.70;;;;;;;16.78;97.93;98735.42;108185;1286;22260;-46
2023/09/23 07:29:13;;;;;;;3.30;1.90;;;;;;;16.77;97.46;98752.51;108192;1285;22222;-46
2023/09/23 07:31:39;;;;;;;1.60;1.50;;;;;;;16.75;97.17;98761.86;108183;1305;22324;-46
2023/09/23 07:34:05;;;;;;;1.90;1.30;;;;;;;16.71;96.67;98761.83;108191;1283;22303;-44
2023/09/23 07:36:31;;;;;;;3.80;1.30;;;;;;;16.72;96.71;98757.91;108206;1285;22444;-47
2023/09/23 07:38:56;;;;;;;7.00;1.60;;;;;;;16.71;96.36;98747.73;108194;1305;22242;-48
2023/09/23 07:41:21;;;;;;;3.60;1.40;;;;;;;16.74;96.57;98735.90;108213;1285;23280;-50
2023/09/23 07:43:48;;;;;;;2.40;1.70;;;;;;;16.77;96.36;98734.20;108226;1285;22207;-49
2023/09/23 07:46:13;;;;;;;3.10;2.00;;;;;;;16.75;96.19;98752.48;108212;1304;22920;-44
2023/09/23 07:48:39;;;;;;;1.70;1.60;;;;;;;16.74;96.14;98760.19;108235;1294;22426;-43
2023/09/23 07:51:04;;;;;;;2.10;1.90;;;;;;;16.72;95.75;98764.27;108276;1299;23379;-46
2023/09/23 07:53:29;;;;;;;2.50;1.80;;;;;;;16.72;95.63;98768.17;108292;1304;22317;-45
2023/09/23 07:55:54;;;;;;;2.50;1.60;;;;;;;16.77;95.60;98773.05;108330;1286;22195;-46
2023/09/23 07:58:20;;;;;;;1.90;1.60;;;;;;;16.79;95.13;98771.74;108340;1286;22235;-46
2023/09/23 08:00:45;;;;;;;2.60;2.00;;;;;;;16.85;95.34;98773.54;108316;1282;23018;-49
2023/09/23 08:03:10;;;;;;;2.30;2.10;;;;;;;16.87;94.82;98773.52;108321;1289;22350;-47
2023/09/23 08:05:35;;;;;;;2.80;1.90;;;;;;;16.84;94.41;98776.80;108322;1282;22233;-49
2023/09/23 08:08:01;;;;;;;3.20;1.80;;;;;;;16.85;94.47;98778.29;108345;1286;22232;-43
2023/09/23 08:10:26;;;;;;;2.60;2.40;;;;;;;16.84;94.23;98788.01;108320;1304;22990;-44
2023/09/23 08:12:51;;;;;;;3.80;2.70;;;;;;;16.82;94.17;98793.50;108308;1304;22400;-42
2023/09/23 08:15:16;;;;;;;5.40;2.30;;;;;;;16.83;94.26;98796.04;108321;1304;22246;-47
2023/09/23 08:17:42;;;;;;;2.60;2.10;;;;;;;16.87;94.24;98791.96;108295;1286;22314;-47
2023/09/23 08:20:17;;;;;;;6.70;2.20;;;;;;;16.85;94.16;98788.08;108283;1283;22416;-51
2023/09/23 08:22:47;;;;;;;4.40;1.90;;;;;;;16.84;93.81;98789.92;108338;1285;22495;-46
2023/09/23 08:25:16;;;;;;;2.30;1.70;;;;;;;16.83;93.24;98792.51;108328;1286;22222;-46
2023/09/23 08:27:42;;;;;;;3.00;2.20;;;;;;;16.81;93.20;98791.98;108337;1282;22400;-46
2023/09/23 08:30:11;;;;;;;2.10;2.00;;;;;;;16.81;93.06;98788.42;108334;1283;22399;-45
2023/09/23 08:32:37;;;;;;;3.60;2.00;;;;;;;16.81;93.27;98778.34;108320;1283;22536;-49
2023/09/23 08:35:05;;;;;;;3.40;2.20;;;;;;;16.88;93.64;98775.04;108328;1304;23253;-49
2023/09/23 08:37:30;;;;;;;;;;;;;;;16.96;93.22;98777.77;108362;1283;22454;-45
2023/09/23 08:39:55;;;;;;;2.40;2.20;;;;;;;17.00;93.12;98784.23;108333;1284;23244;-47
2023/09/23 08:42:24;;;;;;;1.80;1.70;;;;;;;17.07;92.63;98792.36;108309;1285;22258;-46
2023/09/23 08:44:49;;;;;;;4.40;2.00;;;;;;;17.14;92.54;98802.55;108333;1286;22455;-42
2023/09/23 08:47:17;;;;;;;5.80;1.80;;;;;;;17.20;92.19;98807.09;108346;1286;22243;-44
2023/09/23 08:49:49;;;;;;;4.00;2.40;;;;;;;17.24;92.09;98809.34;108354;1285;22286;-47
2023/09/23 08:52:17;;;;;;;2.30;2.10;;;;;;;17.36;92.18;98808.38;108332;1295;22222;-47
2023/09/23 08:54:47;;;;;;;5.60;2.20;;;;;;;17.43;91.74;98815.11;108344;1304;22459;-50
2023/09/23 08:57:12;;;;;;;1.90;1.80;;;;;;;17.51;91.20;98816.38;108333;1283;22512;-50
2023/09/23 08:59:39;;;;;;;2.40;1.80;;;;;;;17.56;90.85;98816.61;108334;1284;22236;-45
2023/09/23 09:02:05;;;;;;;6.40;1.90;;;;;;;17.58;90.72;98815.83;108353;1286;22516;-48
2023/09/23 09:04:31;;;;;;;3.40;1.90;;;;;;;17.63;90.81;98815.96;108314;1286;22226;-48
2023/09/23 09:06:57;;;;;;;2.10;1.90;;;;;;;17.68;90.81;98815.14;108336;1285;23010;-45
2023/09/23 09:09:23;;;;;;;3.10;2.00;;;;;;;17.71;89.52;98812.20;108329;1304;22691;-47
2023/09/23 09:11:50;;;;;;;2.20;1.40;;;;;;;17.75;89.57;98804.77;108318;1304;23067;-46
2023/09/23 09:14:16;;;;;;;1.40;1.30;;;;;;;17.78;88.82;98800.71;108304;1304;22425;-48
2023/09/23 09:16:42;;;;;;;1.60;1.50;;;;;;;17.80;88.76;98798.27;108328;1304;22259;-49
2023/09/23 09:19:07;;;;;;;2.00;1.70;;;;;;;17.79;88.69;98794.81;108331;1286;22931;-46
2023/09/23 09:21:34;;;;;;;1.90;1.30;;;;;;;17.80;88.73;98793.13;108311;1303;22263;-49
2023/09/23 09:24:00;;;;;;;1.40;1.30;;;;;;;17.80;87.26;98790.45;108348;1283;22201;-45
2023/09/23 09:26:25;;;;;;;1.60;1.50;;;;;;;17.76;86.43;98789.89;108360;1304;22515;-47
2023/09/23 09:28:51;;;;;;;1.70;1.50;;;;;;;17.81;87.56;98798.86;108328;1282;22222;-48
2023/09/23 09:31:20;;;;;;;3.00;1.40;;;;;;;17.81;87.10;98801.73;108336;1285;22298;-51
2023/09/23 09:33:47;;;;;;;2.30;1.60;;;;;;;17.79;88.00;98800.66;108334;1282;22435;-50
2023/09/23 09:36:20;;;;;;;1.50;1.40;;;;;;;17.80;88.10;98797.16;108164;1304;25173;-42
2023/09/23 09:38:53;;;;;;;1.60;1.50;;;;;;;17.83;87.04;98799.95;108246;1282;22549;-46
2023/09/23 09:41:29;;;;;;;1.70;1.50;;;;;;;17.85;86.78;98805.76;108282;1297;23305;-51
2023/09/23 09:44:00;;;;;;;3.60;1.50;;;;;;;17.84;86.03;98810.48;108249;1282;22414;-45
2023/09/23 09:46:29;;;;;;;1.60;1.50;;;;;;;17.85;86.62;98816.41;108092;1285;22587;-47
2023/09/23 09:48:57;;;;;;;3.70;1.40;;;;;;;17.88;86.69;98824.10;108160;1304;22432;-50
2023/09/23 09:51:23;;;;;;;2.40;1.50;;;;;;;17.88;85.98;98825.95;108158;1282;22431;-48
2023/09/23 09:53:50;;;;;;;3.10;1.50;;;;;;;17.85;84.70;98824.17;108183;1286;22279;-50
2023/09/23 09:56:16;;;;;;;2.20;1.30;;;;;;;17.87;84.22;98819.73;108193;1282;23172;-48
2023/09/23 09:58:42;;;;;;;2.20;1.50;;;;;;;17.89;84.47;98818.39;108210;1283;22227;-47
2023/09/23 10:01:11;;;;;;;4.10;1.70;;;;;;;17.89;84.98;98821.19;108223;1287;22242;-46
2023/09/23 10:03:37;;;;;;;4.20;1.50;;;;;;;17.92;84.99;98821.41;108236;1288;22403;-51
2023/09/23 10:06:06;;;;;;;2.40;1.40;;;;;;;17.95;84.93;98821.02;108216;1295;23214;-47
2023/09/23 10:08:36;;;;;;;1.80;1.20;;;;;;;17.99;84.20;98827.88;108229;1304;22442;-46
2023/09/23 10:11:03;;;;;;;2.30;1.30;;;;;;;18.06;84.26;98834.89;108218;1283;22233;-45
2023/09/23 10:13:31;;;;;;;4.60;1.20;;;;;;;18.12;83.90;98841.59;108203;1304;22415;-49
2023/09/23 10:16:04;;;;;;;2.40;1.40;;;;;;;18.21;83.63;98846.75;108205;1304;22330;-46
2023/09/23 10:18:35;;;;;;;1.80;1.40;;;;;;;18.28;82.48;98850.94;108217;1298;22243;-47
2023/09/23 10:21:02;;;;;;;1.80;1.70;;;;;;;18.31;82.74;98856.33;108220;1288;23399;-47
2023/09/23 10:23:35;;;;;;;2.10;1.70;;;;;;;18.28;81.53;98860.98;108022;1289;22258;-49
2023/09/23 10:26:14;;;;;;;4.00;2.10;;;;;;;18.28;81.36;98857.13;108237;1285;22235;-47
2023/09/23 10:28:40;;;;;;;2.20;2.00;;;;;;;18.29;81.47;98855.77;108198;1292;22417;-50
2023/09/23 10:31:06;;;;;;;4.20;2.00;;;;;;;18.31;81.66;98862.01;108211;1305;23097;-48
2023/09/23 10:33:34;;;;;;;3.30;1.90;;;;;;;18.29;81.17;98867.70;108241;1285;22439;-44
2023/09/23 10:36:00;;;;;;;2.30;2.00;;;;;;;18.25;81.45;98863.27;108244;1288;22549;-47
2023/09/23 10:38:30;;;;;;;3.30;2.30;;;;;;;18.21;81.42;98863.75;108218;1305;22309;-47
2023/09/23 10:40:56;;;;;;;3.20;2.20;;;;;;;18.14;81.18;98867.99;108217;1304;22310;-47
2023/09/23 10:43:21;;;;;;;4.10;2.20;;;;;;;18.14;81.45;98876.67;108213;1304;22262;-46
2023/09/23 10:45:48;;;;;;;3.90;2.00;;;;;;;18.15;81.41;98879.77;108174;1290;22527;-50
2023/09/23 10:48:14;;;;;;;7.50;2.20;;;;;;;18.13;81.38;98875.39;108282;1285;22007;-48
2023/09/23 10:50:40;;;;;;;5.20;2.20;;;;;;;18.13;81.95;98868.41;108280;1298;22285;-47
2023/09/23 10:53:07;;;;;;;2.90;2.40;;;;;;;18.18;82.63;98868.52;108325;1304;22240;-49
2023/09/23 10:55:34;;;;;;;2.80;2.50;;;;;;;18.25;82.53;98873.38;108287;1304;22232;-48
2023/09/23 10:58:00;;;;;;;5.50;2.90;;;;;;;18.30;82.42;98877.54;108227;1304;23316;-50
2023/09/23 11:00:25;;;;;;;2.60;2.40;;;;;;;18.32;82.24;98872.86;108213;1304;22235;-45
2023/09/23 11:02:52;;;;;;;3.40;3.00;;;;;;;18.35;81.89;98866.07;108240;1283;22865;-47
2023/09/23 11:05:20;;;;;;;4.50;3.30;;;;;;;18.34;81.58;98866.14;108221;1304;23123;-50
2023/09/23 11:07:45;;;;;;;3.60;2.80;;;;;;;18.29;81.37;98863.93;108223;1289;22234;-48
2023/09/23 11:10:12;;;;;;;5.00;3.20;;;;;;;18.29;82.09;98856.81;108236;1290;22235;-47
2023/09/23 11:12:38;;;;;;;4.10;3.50;;;;;;;18.32;82.47;98854.02;108229;1305;22513;-48
2023/09/23 11:15:03;;;;;;;5.80;3.60;;;;;;;18.35;82.07;98852.88;108248;1282;22230;-47
2023/09/23 11:17:32;;;;;;;4.50;3.60;;;;;;;18.31;81.20;98852.03;108227;1290;22892;-51
2023/09/23 11:19:59;;;;;;;6.20;5.00;;;;;;;18.29;81.52;98851.48;108220;1304;22921;-45
2023/09/23 11:22:29;;;;;;;5.00;4.60;;;;;;;18.26;81.44;98854.46;108231;1289;22313;-48
2023/09/23 11:24:56;;;;;;;5.40;4.80;;;;;;;18.23;81.78;98857.55;108254;1289;22306;-45
2023/09/23 11:27:23;;;;;;;6.20;5.60;;;;;;;18.22;82.00;98862.27;108220;1304;22687;-45
2023/09/23 11:29:49;;;;;;;7.70;5.40;;;;;;;18.21;81.85;98867.02;108257;1289;23309;-46
2023/09/23 11:32:20;;;;;;;7.00;6.30;;;;;;;18.17;81.61;98865.08;108215;1304;22510;-48
2023/09/23 11:34:45;;;;;;;6.60;6.00;;;;;;;18.14;81.51;98862.14;108225;1304;22414;-46
2023/09/23 11:37:10;;;;;;;7.70;5.50;;;;;;;18.11;81.52;98865.42;108225;1285;22239;-44
2023/09/23 11:39:37;;;;;;;6.00;5.20;;;;;;;18.10;81.61;98863.64;108211;1302;23154;-48
2023/09/23 11:42:03;;;;;;;8.70;6.50;;;;;;;18.09;81.82;98866.89;108234;1304;22541;-47
2023/09/23 11:44:28;;;;;;;6.10;5.20;;;;;;;18.09;81.70;98865.88;108224;1285;22293;-49
2023/09/23 11:46:54;;;;;;;9.40;5.20;;;;;;;18.03;81.17;98868.84;108205;1304;22846;-50
2023/09/23 11:49:19;;;;;;;6.70;5.10;;;;;;;17.99;81.31;98873.63;108254;1304;22245;-48
2023/09/23 11:51:45;;;;;;;5.70;5.00;;;;;;;17.97;81.31;98878.02;108214;1285;22218;-50
2023/09/23 11:54:10;;;;;;;9.00;4.70;;;;;;;17.96;81.36;98886.73;108194;1304;22427;-49
2023/09/23 11:56:36;;;;;;;6.10;4.50;;;;;;;17.95;81.17;98897.20;108229;1298;22895;-51
2023/09/23 11:59:01;;;;;;;9.60;5.00;;;;;;;17.93;80.79;98894.39;108231;1290;22411;-48
2023/09/23 12:01:27;;;;;;;6.80;4.60;;;;;;;17.93;80.76;98900.76;108236;1285;22471;-50
2023/09/23 12:03:57;;;;;;;4.60;4.20;;;;;;;17.92;80.65;98907.85;108262;1282;22678;-51
2023/09/23 12:06:23;;;;;;;4.50;4.00;;;;;;;17.91;80.40;98916.92;108234;1286;22252;-53
2023/09/23 12:08:48;;;;;;;5.80;4.70;;;;;;;17.88;80.34;98921.46;108243;1282;22442;-46
2023/09/23 12:11:13;;;;;;;4.60;4.20;;;;;;;17.85;80.84;98919.11;108241;1304;22886;-44
2023/09/23 12:13:39;;;;;;;5.80;5.00;;;;;;;17.82;81.12;98913.33;108239;1282;23134;-46
2023/09/23 12:16:04;;;;;;;7.70;4.70;;;;;;;17.82;81.61;98913.12;108224;1304;22315;-52
2023/09/23 12:18:29;;;;;;;5.40;4.70;;;;;;;17.81;81.57;98914.77;108208;1304;23619;-50
2023/09/23 12:20:55;;;;;;;4.90;4.50;;;;;;;17.83;82.17;98922.21;108238;1304;22421;-49
2023/09/23 12:23:20;;;;;;;5.30;4.70;;;;;;;17.86;82.53;98929.80;108223;1285;22356;-50
2023/09/23 12:25:45;;;;;;;6.50;4.40;;;;;;;17.81;83.06;98936.09;108245;1285;22254;-47
2023/09/23 12:28:11;;;;;;;6.70;4.80;;;;;;;17.79;82.66;98933.83;108250;1285;22244;-46
2023/09/23 12:30:36;;;;;;;5.00;4.50;;;;;;;17.77;82.71;98935.92;108234;1304;22253;-45
2023/09/23 12:33:02;;;;;;;7.90;4.30;;;;;;;17.72;83.12;98936.38;108236;1304;22420;-49
2023/09/23 12:35:44;;;;;;;5.20;4.70;;;;;;;17.67;83.05;98932.88;106835;1305;544847;-47
2023/09/23 12:38:10;;;;;;;5.70;4.30;;;;;;;17.62;83.76;98931.61;107416;1312;22968;-44
2023/09/23 12:40:36;;;;;;;6.00;5.40;;;;;;;17.60;84.64;98929.63;107532;1311;22274;-45
2023/09/23 12:43:01;;;;;;;5.60;4.90;;;;;;;17.60;84.86;98932.79;107689;1291;22369;-45
2023/09/23 12:45:26;;;;;;;6.70;4.80;;;;;;;17.60;84.79;98935.83;107681;1302;22415;-47
2023/09/23 12:47:52;;;;;;;5.40;4.90;;;;;;;17.58;85.34;98936.73;107682;1309;22435;-45
2023/09/23 12:50:17;;;;;;;7.80;5.20;;;;;;;17.57;85.38;98942.84;107623;1288;299527;-47
2023/09/23 12:52:42;;;;;;;4.90;4.50;;;;;;;17.57;85.07;98948.14;107870;1307;22547;-46
2023/09/23 12:55:08;;;;;;;6.60;4.60;;;;;;;17.57;86.40;98952.44;107854;1297;22322;-48
2023/09/23 12:57:34;;;;;;;7.50;5.30;;;;;;;17.57;86.73;98955.13;107859;1293;22465;-49
2023/09/23 13:00:01;;;;;;;5.80;5.10;;;;;;;17.57;86.90;98954.23;107869;1288;22232;-46
2023/09/23 13:02:26;;;;;;;8.20;5.00;;;;;;;17.57;87.03;98959.15;107905;1288;22868;-50
2023/09/23 13:04:51;;;;;;;5.80;5.20;;;;;;;17.56;87.40;98958.52;107863;1288;22440;-45
2023/09/23 13:07:16;;;;;;;5.40;4.90;;;;;;;17.56;88.01;98958.02;107839;1307;22473;-47
2023/09/23 13:09:42;;;;;;;7.70;5.10;;;;;;;17.55;87.65;98955.91;107779;1307;23378;-48
2023/09/23 13:12:07;;;;;;;6.70;5.60;;;;;;;17.56;87.38;98949.54;107883;1288;22212;-48
2023/09/23 13:14:32;;;;;;;8.40;5.70;;;;;;;17.55;87.57;98945.71;107861;1307;23345;-47
2023/09/23 13:16:58;;;;;;;5.90;5.30;;;;;;;17.54;88.40;98948.30;107860;1288;22471;-47
2023/09/23 13:19:23;;;;;;;5.90;5.30;;;;;;;17.54;89.24;98949.91;107868;1288;22225;-44
2023/09/23 13:21:49;;;;;;;6.90;5.60;;;;;;;17.55;89.58;98952.62;107855;1307;23535;-45
2023/09/23 13:24:14;;;;;;;5.80;5.10;;;;;;;17.54;88.86;98954.44;107842;1288;22407;-45
2023/09/23 13:26:40;;;;;;;5.50;4.90;;;;;;;17.52;89.25;98951.08;107864;1307;22246;-48
2023/09/23 13:29:05;;;;;;;9.40;5.40;;;;;;;17.52;90.15;98946.13;107869;1307;22425;-45
2023/09/23 13:31:31;;;;;;;7.10;4.90;;;;;;;17.53;90.60;98939.49;107872;1288;22228;-47
2023/09/23 13:33:56;;;;;;;6.40;5.10;;;;;;;17.56;90.34;98938.85;107859;1285;22235;-46
2023/09/23 13:36:21;;;;;;;8.80;4.70;;;;;;;17.54;90.32;98937.79;107867;1288;23314;-46
2023/09/23 13:38:47;;;;;;;4.90;4.50;;;;;;;17.50;90.43;98936.94;107864;1307;22409;-46
2023/09/23 13:41:13;;;;;;;5.60;5.00;;;;;;;17.47;90.08;98937.72;107833;1288;22276;-49
2023/09/23 13:43:39;;;;;;;4.60;4.20;;;;;;;17.45;90.76;98935.95;107884;1288;22218;-45
2023/09/23 13:46:04;;;;;;;7.60;4.20;;;;;;;17.42;90.71;98932.12;107875;1289;22427;-46
2023/09/23 13:48:30;;;;;;;7.70;4.60;;;;;;;17.41;91.03;98928.71;107847;1307;22304;-49
2023/09/23 13:50:55;;;;;;;6.30;4.50;;;;;;;17.41;90.94;98926.54;107879;1307;22476;-46
2023/09/23 13:53:20;;;;;;;5.50;4.40;;;;;;;17.44;90.71;98927.73;107845;1288;22231;-51
2023/09/23 13:55:46;;;;;;;5.40;4.40;;;;;;;17.46;90.74;98931.58;107853;1288;22247;-44
2023/09/23 13:58:11;;;;;;;5.00;4.20;;;;;;;17.45;91.12;98929.96;107853;1288;23896;-46
2023/09/23 14:00:37;;;;;;;7.50;5.00;;;;;;;17.42;90.81;98932.51;107888;1288;22976;-46
2023/09/23 14:03:03;;;;;;;9.40;4.60;;;;;;;17.43;90.87;98937.52;107845;1288;23369;-49